Terminal Aerodrome Forecast
Issued by NWS

Home | Current Version | Previous Version | Text Only | Print | Product List | Glossary On
Versions: 1 2 3 4 5 6 7 8 9 10 11 12 13 14 15 16 17 18 19 20 21 22
000
FTUS43 KFGF 251100
TAFTVF
TAF
KTVF 251122Z 2512/2612 31010KT P6SM OVC008
      TEMPO 2513/2515 -SN OVC015
     FM251500 31010KT P6SM OVC015
     FM251800 31010KT P6SM -SN OVC020
      AMD LTD TO CLD VIS AND WIND=

USA.gov is the U.S. government's official web portal to all federal, state and local government web resources and services.